createdAt,value
2018-04-01T00:05:35.778Z,17.10
2018-04-01T00:15:45.514Z,14.73
2018-04-01T00:25:53.668Z,14.70
2018-04-01T00:36:00.131Z,14.77
2018-04-01T00:46:07.333Z,17.33
2018-04-01T00:56:14.911Z,14.40
2018-04-01T01:06:24.892Z,16.87
2018-04-01T01:16:37.838Z,18.30
2018-04-01T01:36:54.954Z,13.30
2018-04-01T01:47:01.799Z,13.13
2018-04-01T01:57:13.148Z,14.47
2018-04-01T02:07:22.328Z,15.03
2018-04-01T02:17:31.678Z,12.87
2018-04-01T02:27:42.910Z,12.20
2018-04-01T02:37:50.171Z,13.47
2018-04-01T02:47:58.383Z,12.90
2018-04-01T02:58:05.818Z,16.27
2018-04-01T03:08:20.289Z,14.07
2018-04-01T03:18:32.706Z,14.70
2018-04-01T03:28:41.203Z,15.97
2018-04-01T03:38:48.312Z,14.57
2018-04-01T03:48:57.123Z,15.80
2018-04-01T03:59:05.501Z,14.60
2018-04-01T04:09:20.531Z,14.80
2018-04-01T04:19:30.100Z,16.87
2018-04-01T04:29:37.719Z,18.63
2018-04-01T04:39:44.558Z,18.37
2018-04-01T04:49:51.193Z,17.73
2018-04-01T04:59:58.824Z,16.90
2018-04-01T05:10:10.428Z,17.33
2018-04-01T05:20:18.624Z,16.73
2018-04-01T05:30:28.105Z,17.57
2018-04-01T05:40:35.059Z,17.23
2018-04-01T05:50:43.484Z,18.40
2018-04-01T06:00:51.514Z,21.27
2018-04-01T06:11:03.420Z,20.90
2018-04-01T06:21:12.216Z,24.07
2018-04-01T06:31:23.280Z,23.20
2018-04-01T06:41:33.292Z,25.97
2018-04-01T06:51:45.663Z,37.90
2018-04-01T07:01:54.054Z,33.93
2018-04-01T07:12:10.279Z,33.33
2018-04-01T07:22:18.229Z,31.90
2018-04-01T07:32:28.232Z,34.20
2018-04-01T07:42:36.305Z,31.53
2018-04-01T08:03:28.317Z,33.27
2018-04-01T08:13:36.016Z,34.00
2018-04-01T08:33:51.166Z,31.00
2018-04-01T08:44:06.175Z,36.90
2018-04-01T09:15:06.003Z,31.50
2018-04-01T09:25:20.981Z,31.83
2018-04-01T09:35:27.919Z,28.50
2018-04-01T09:45:39.420Z,31.23
2018-04-01T09:55:53.894Z,28.53
2018-04-01T10:16:40.082Z,27.57
2018-04-01T10:58:36.362Z,27.17
2018-04-01T11:08:51.269Z,23.27
2018-04-01T11:19:01.517Z,24.13
2018-04-01T11:29:08.686Z,22.83
2018-04-01T11:39:22.064Z,20.60
2018-04-01T11:49:30.662Z,23.37
2018-04-01T11:59:39.986Z,21.90
2018-04-01T12:09:52.555Z,28.03
2018-04-01T12:20:04.420Z,20.33
2018-04-01T12:30:11.669Z,19.83
2018-04-01T12:40:25.826Z,19.67
2018-04-01T12:50:34.043Z,19.17
2018-04-01T13:10:59.319Z,19.07
2018-04-01T13:21:08.377Z,22.07
2018-04-01T14:02:40.784Z,18.60
2018-04-01T14:12:54.532Z,19.57
2018-04-01T14:23:22.208Z,18.13
2018-04-01T14:33:38.007Z,19.20
2018-04-01T14:54:04.297Z,21.20
2018-04-01T15:04:16.857Z,18.80
2018-04-01T15:14:32.493Z,19.87
2018-04-01T15:24:48.892Z,20.67
2018-04-01T15:45:36.639Z,20.77
2018-04-01T16:16:51.397Z,17.40
2018-04-01T17:19:41.752Z,16.30
2018-04-01T17:30:03.204Z,16.00
2018-04-01T19:03:47.945Z,13.53
2018-04-01T19:13:59.501Z,12.80
2018-04-01T19:24:08.779Z,13.13
2018-04-01T20:37:23.134Z,12.03
2018-04-01T21:08:38.487Z,11.30
2018-04-01T21:18:47.720Z,11.50
2018-04-01T21:39:16.233Z,14.47
